sensor_id;sensor_type;location;lat;lon;timestamp;P1;durP1;ratioP1;P2;durP2;ratioP2
18917;SDS011;9591;52.742;13.650;2023-12-20T00:01:48;4.00;;;2.00;;
18917;SDS011;9591;52.742;13.650;2023-12-20T00:04:36;6.50;;;2.57;;
18917;SDS011;9591;52.742;13.650;2023-12-20T00:07:23;3.57;;;2.23;;
18917;SDS011;9591;52.742;13.650;2023-12-20T00:10:10;2.40;;;2.17;;
18917;SDS011;9591;52.742;13.650;2023-12-20T00:12:58;3.50;;;2.50;;
18917;SDS011;9591;52.742;13.650;2023-12-20T00:15:45;4.47;;;2.53;;
18917;SDS011;9591;52.742;13.650;2023-12-20T00:18:33;4.03;;;2.30;;
18917;SDS011;9591;52.742;13.650;2023-12-20T00:21:20;5.10;;;2.47;;
18917;SDS011;9591;52.742;13.650;2023-12-20T00:24:07;2.60;;;2.40;;
18917;SDS011;9591;52.742;13.650;2023-12-20T00:26:54;2.63;;;2.27;;
18917;SDS011;9591;52.742;13.650;2023-12-20T00:29:41;2.53;;;2.00;;
18917;SDS011;9591;52.742;13.650;2023-12-20T00:32:28;3.23;;;2.57;;
18917;SDS011;9591;52.742;13.650;2023-12-20T00:35:16;2.60;;;2.40;;
18917;SDS011;9591;52.742;13.650;2023-12-20T00:38:03;2.30;;;1.93;;
18917;SDS011;9591;52.742;13.650;2023-12-20T00:40:50;3.13;;;2.03;;
18917;SDS011;9591;52.742;13.650;2023-12-20T00:43:37;4.60;;;2.23;;
18917;SDS011;9591;52.742;13.650;2023-12-20T00:46:24;4.83;;;2.40;;
18917;SDS011;9591;52.742;13.650;2023-12-20T00:49:11;3.67;;;2.30;;
18917;SDS011;9591;52.742;13.650;2023-12-20T00:51:59;2.43;;;2.17;;
18917;SDS011;9591;52.742;13.650;2023-12-20T00:54:46;2.60;;;2.27;;
18917;SDS011;9591;52.742;13.650;2023-12-20T00:57:33;5.13;;;2.00;;
18917;SDS011;9591;52.742;13.650;2023-12-20T01:00:20;3.30;;;2.20;;
18917;SDS011;9591;52.742;13.650;2023-12-20T01:03:07;2.50;;;2.30;;
18917;SDS011;9591;52.742;13.650;2023-12-20T01:05:54;3.50;;;2.40;;
18917;SDS011;9591;52.742;13.650;2023-12-20T01:08:42;2.40;;;2.20;;
18917;SDS011;9591;52.742;13.650;2023-12-20T01:11:29;2.30;;;2.10;;
18917;SDS011;9591;52.742;13.650;2023-12-20T01:14:16;3.13;;;2.53;;
18917;SDS011;9591;52.742;13.650;2023-12-20T01:17:03;3.77;;;2.60;;
18917;SDS011;9591;52.742;13.650;2023-12-20T01:19:50;2.53;;;2.30;;
18917;SDS011;9591;52.742;13.650;2023-12-20T01:22:36;3.43;;;2.07;;
18917;SDS011;9591;52.742;13.650;2023-12-20T01:25:25;2.13;;;1.93;;
18917;SDS011;9591;52.742;13.650;2023-12-20T01:28:11;2.23;;;2.03;;
18917;SDS011;9591;52.742;13.650;2023-12-20T01:30:58;3.87;;;1.90;;
18917;SDS011;9591;52.742;13.650;2023-12-20T01:33:45;2.00;;;1.80;;
18917;SDS011;9591;52.742;13.650;2023-12-20T01:36:32;2.23;;;2.03;;
18917;SDS011;9591;52.742;13.650;2023-12-20T01:39:19;2.20;;;1.87;;
18917;SDS011;9591;52.742;13.650;2023-12-20T01:42:15;2.07;;;1.87;;
18917;SDS011;9591;52.742;13.650;2023-12-20T01:45:02;2.03;;;1.83;;
18917;SDS011;9591;52.742;13.650;2023-12-20T01:47:50;3.43;;;2.27;;
18917;SDS011;9591;52.742;13.650;2023-12-20T01:50:37;5.93;;;2.07;;
18917;SDS011;9591;52.742;13.650;2023-12-20T01:53:24;2.13;;;1.87;;
18917;SDS011;9591;52.742;13.650;2023-12-20T01:56:12;2.30;;;2.00;;
18917;SDS011;9591;52.742;13.650;2023-12-20T01:59:00;2.43;;;2.10;;
18917;SDS011;9591;52.742;13.650;2023-12-20T02:01:49;2.60;;;2.40;;
18917;SDS011;9591;52.742;13.650;2023-12-20T02:04:37;3.13;;;2.50;;
18917;SDS011;9591;52.742;13.650;2023-12-20T02:07:24;3.03;;;2.60;;
18917;SDS011;9591;52.742;13.650;2023-12-20T02:10:12;3.30;;;2.70;;
18917;SDS011;9591;52.742;13.650;2023-12-20T02:12:59;5.87;;;2.40;;
18917;SDS011;9591;52.742;13.650;2023-12-20T02:15:47;2.57;;;2.23;;
18917;SDS011;9591;52.742;13.650;2023-12-20T02:18:34;2.60;;;2.40;;
18917;SDS011;9591;52.742;13.650;2023-12-20T02:21:25;4.60;;;2.57;;
18917;SDS011;9591;52.742;13.650;2023-12-20T02:24:18;6.40;;;2.53;;
18917;SDS011;9591;52.742;13.650;2023-12-20T02:27:05;3.97;;;2.73;;
18917;SDS011;9591;52.742;13.650;2023-12-20T02:29:53;10.03;;;2.90;;
18917;SDS011;9591;52.742;13.650;2023-12-20T02:32:40;6.00;;;2.53;;
18917;SDS011;9591;52.742;13.650;2023-12-20T02:35:27;2.73;;;2.47;;
18917;SDS011;9591;52.742;13.650;2023-12-20T02:38:16;3.37;;;2.30;;
18917;SDS011;9591;52.742;13.650;2023-12-20T02:41:03;8.07;;;2.47;;
18917;SDS011;9591;52.742;13.650;2023-12-20T02:43:49;3.53;;;2.57;;
18917;SDS011;9591;52.742;13.650;2023-12-20T02:46:36;3.67;;;2.40;;
18917;SDS011;9591;52.742;13.650;2023-12-20T02:49:23;2.47;;;2.27;;
18917;SDS011;9591;52.742;13.650;2023-12-20T02:52:10;5.37;;;3.03;;
18917;SDS011;9591;52.742;13.650;2023-12-20T02:55:00;7.07;;;2.80;;
18917;SDS011;9591;52.742;13.650;2023-12-20T02:57:51;5.53;;;2.53;;
18917;SDS011;9591;52.742;13.650;2023-12-20T03:00:38;5.37;;;2.57;;
18917;SDS011;9591;52.742;13.650;2023-12-20T03:03:24;6.07;;;2.70;;
18917;SDS011;9591;52.742;13.650;2023-12-20T03:06:11;2.87;;;2.50;;
18917;SDS011;9591;52.742;13.650;2023-12-20T03:09:04;3.57;;;2.40;;
18917;SDS011;9591;52.742;13.650;2023-12-20T03:11:52;4.90;;;2.50;;
18917;SDS011;9591;52.742;13.650;2023-12-20T03:14:39;3.00;;;2.33;;
18917;SDS011;9591;52.742;13.650;2023-12-20T03:17:32;4.47;;;2.20;;
18917;SDS011;9591;52.742;13.650;2023-12-20T03:20:23;6.07;;;2.70;;
18917;SDS011;9591;52.742;13.650;2023-12-20T03:23:11;5.03;;;2.40;;
18917;SDS011;9591;52.742;13.650;2023-12-20T03:25:58;8.70;;;3.30;;
18917;SDS011;9591;52.742;13.650;2023-12-20T03:28:47;4.70;;;2.63;;
18917;SDS011;9591;52.742;13.650;2023-12-20T03:31:34;7.80;;;2.70;;
18917;SDS011;9591;52.742;13.650;2023-12-20T03:34:21;7.10;;;2.63;;
18917;SDS011;9591;52.742;13.650;2023-12-20T03:37:08;7.10;;;2.83;;
18917;SDS011;9591;52.742;13.650;2023-12-20T03:39:56;5.93;;;2.80;;
18917;SDS011;9591;52.742;13.650;2023-12-20T03:42:43;4.40;;;2.90;;
18917;SDS011;9591;52.742;13.650;2023-12-20T03:45:31;5.10;;;3.20;;
18917;SDS011;9591;52.742;13.650;2023-12-20T03:48:18;6.73;;;2.80;;
18917;SDS011;9591;52.742;13.650;2023-12-20T03:51:05;7.93;;;2.73;;
18917;SDS011;9591;52.742;13.650;2023-12-20T03:53:51;7.83;;;3.40;;
18917;SDS011;9591;52.742;13.650;2023-12-20T03:56:38;6.87;;;2.70;;
18917;SDS011;9591;52.742;13.650;2023-12-20T03:59:25;4.10;;;2.63;;
18917;SDS011;9591;52.742;13.650;2023-12-20T04:02:13;4.17;;;2.33;;
18917;SDS011;9591;52.742;13.650;2023-12-20T04:05:01;2.97;;;2.60;;
18917;SDS011;9591;52.742;13.650;2023-12-20T04:07:47;2.97;;;2.47;;
18917;SDS011;9591;52.742;13.650;2023-12-20T04:10:35;11.37;;;2.80;;
18917;SDS011;9591;52.742;13.650;2023-12-20T04:13:22;4.37;;;2.40;;
18917;SDS011;9591;52.742;13.650;2023-12-20T04:16:09;3.67;;;1.97;;
18917;SDS011;9591;52.742;13.650;2023-12-20T04:18:57;6.37;;;2.20;;
18917;SDS011;9591;52.742;13.650;2023-12-20T04:21:44;7.83;;;2.53;;
18917;SDS011;9591;52.742;13.650;2023-12-20T04:24:31;4.03;;;2.00;;
18917;SDS011;9591;52.742;13.650;2023-12-20T04:27:18;8.63;;;3.00;;
18917;SDS011;9591;52.742;13.650;2023-12-20T04:30:06;5.47;;;2.20;;
18917;SDS011;9591;52.742;13.650;2023-12-20T04:32:54;6.13;;;2.40;;
18917;SDS011;9591;52.742;13.650;2023-12-20T04:35:43;9.50;;;2.70;;
18917;SDS011;9591;52.742;13.650;2023-12-20T04:38:31;5.17;;;2.20;;
18917;SDS011;9591;52.742;13.650;2023-12-20T04:41:18;6.80;;;3.03;;
18917;SDS011;9591;52.742;13.650;2023-12-20T04:44:05;3.63;;;1.97;;
18917;SDS011;9591;52.742;13.650;2023-12-20T04:46:52;8.87;;;2.03;;
18917;SDS011;9591;52.742;13.650;2023-12-20T04:49:39;3.87;;;2.43;;
18917;SDS011;9591;52.742;13.650;2023-12-20T04:52:27;8.10;;;2.77;;
18917;SDS011;9591;52.742;13.650;2023-12-20T04:55:14;7.90;;;2.70;;
18917;SDS011;9591;52.742;13.650;2023-12-20T04:58:01;8.97;;;2.30;;
18917;SDS011;9591;52.742;13.650;2023-12-20T05:00:48;5.40;;;2.10;;
18917;SDS011;9591;52.742;13.650;2023-12-20T05:03:35;2.60;;;2.10;;
18917;SDS011;9591;52.742;13.650;2023-12-20T05:06:22;8.07;;;2.13;;
18917;SDS011;9591;52.742;13.650;2023-12-20T05:09:11;7.73;;;2.57;;
18917;SDS011;9591;52.742;13.650;2023-12-20T05:11:58;6.50;;;2.60;;
18917;SDS011;9591;52.742;13.650;2023-12-20T05:14:45;8.00;;;1.90;;
18917;SDS011;9591;52.742;13.650;2023-12-20T05:17:33;10.20;;;2.40;;
18917;SDS011;9591;52.742;13.650;2023-12-20T05:20:19;6.70;;;1.93;;
18917;SDS011;9591;52.742;13.650;2023-12-20T05:23:06;7.60;;;2.00;;
18917;SDS011;9591;52.742;13.650;2023-12-20T05:25:55;11.37;;;2.00;;
18917;SDS011;9591;52.742;13.650;2023-12-20T05:28:41;8.17;;;1.67;;
18917;SDS011;9591;52.742;13.650;2023-12-20T05:31:28;6.37;;;1.90;;
18917;SDS011;9591;52.742;13.650;2023-12-20T05:34:15;9.50;;;2.10;;
18917;SDS011;9591;52.742;13.650;2023-12-20T05:37:02;3.57;;;1.83;;
18917;SDS011;9591;52.742;13.650;2023-12-20T05:39:49;5.87;;;2.10;;
18917;SDS011;9591;52.742;13.650;2023-12-20T05:42:37;5.47;;;1.70;;
18917;SDS011;9591;52.742;13.650;2023-12-20T05:45:24;9.07;;;2.53;;
18917;SDS011;9591;52.742;13.650;2023-12-20T05:48:11;6.53;;;1.90;;
18917;SDS011;9591;52.742;13.650;2023-12-20T05:50:58;4.37;;;2.00;;
18917;SDS011;9591;52.742;13.650;2023-12-20T05:53:45;4.87;;;2.00;;
18917;SDS011;9591;52.742;13.650;2023-12-20T05:56:32;3.17;;;1.80;;
18917;SDS011;9591;52.742;13.650;2023-12-20T05:59:20;10.47;;;3.03;;
18917;SDS011;9591;52.742;13.650;2023-12-20T06:02:07;16.37;;;2.43;;
18917;SDS011;9591;52.742;13.650;2023-12-20T06:04:54;12.97;;;2.37;;
18917;SDS011;9591;52.742;13.650;2023-12-20T06:07:41;8.47;;;2.40;;
18917;SDS011;9591;52.742;13.650;2023-12-20T06:10:28;6.37;;;2.20;;
18917;SDS011;9591;52.742;13.650;2023-12-20T06:13:15;9.23;;;2.13;;
18917;SDS011;9591;52.742;13.650;2023-12-20T06:16:04;4.43;;;2.27;;
18917;SDS011;9591;52.742;13.650;2023-12-20T06:18:52;9.87;;;2.33;;
18917;SDS011;9591;52.742;13.650;2023-12-20T06:21:39;4.20;;;2.00;;
18917;SDS011;9591;52.742;13.650;2023-12-20T06:24:29;10.63;;;2.27;;
18917;SDS011;9591;52.742;13.650;2023-12-20T06:27:18;10.77;;;2.47;;
18917;SDS011;9591;52.742;13.650;2023-12-20T06:30:06;12.67;;;2.33;;
18917;SDS011;9591;52.742;13.650;2023-12-20T06:32:55;13.57;;;2.23;;
18917;SDS011;9591;52.742;13.650;2023-12-20T06:35:43;8.33;;;2.70;;
18917;SDS011;9591;52.742;13.650;2023-12-20T06:38:29;12.37;;;2.50;;
18917;SDS011;9591;52.742;13.650;2023-12-20T06:41:16;5.93;;;1.97;;
18917;SDS011;9591;52.742;13.650;2023-12-20T06:44:03;4.70;;;2.57;;
18917;SDS011;9591;52.742;13.650;2023-12-20T06:46:50;2.67;;;1.63;;
18917;SDS011;9591;52.742;13.650;2023-12-20T06:49:38;4.57;;;2.10;;
18917;SDS011;9591;52.742;13.650;2023-12-20T06:52:25;3.37;;;1.50;;
18917;SDS011;9591;52.742;13.650;2023-12-20T06:55:12;6.30;;;2.33;;
18917;SDS011;9591;52.742;13.650;2023-12-20T06:58:00;9.07;;;2.23;;
18917;SDS011;9591;52.742;13.650;2023-12-20T07:00:47;6.27;;;2.37;;
18917;SDS011;9591;52.742;13.650;2023-12-20T07:03:33;3.90;;;2.00;;
18917;SDS011;9591;52.742;13.650;2023-12-20T07:06:22;1.67;;;1.53;;
18917;SDS011;9591;52.742;13.650;2023-12-20T07:09:11;6.27;;;1.90;;
18917;SDS011;9591;52.742;13.650;2023-12-20T07:11:58;6.63;;;2.47;;
18917;SDS011;9591;52.742;13.650;2023-12-20T07:14:45;4.47;;;1.63;;
18917;SDS011;9591;52.742;13.650;2023-12-20T07:17:32;6.53;;;1.97;;
18917;SDS011;9591;52.742;13.650;2023-12-20T07:20:19;5.57;;;1.70;;
18917;SDS011;9591;52.742;13.650;2023-12-20T07:23:08;5.67;;;2.27;;
18917;SDS011;9591;52.742;13.650;2023-12-20T07:25:55;11.27;;;2.43;;
18917;SDS011;9591;52.742;13.650;2023-12-20T07:28:41;5.03;;;1.90;;
18917;SDS011;9591;52.742;13.650;2023-12-20T07:31:28;11.13;;;2.30;;
18917;SDS011;9591;52.742;13.650;2023-12-20T07:34:16;11.63;;;2.20;;
18917;SDS011;9591;52.742;13.650;2023-12-20T07:37:03;10.13;;;2.37;;
18917;SDS011;9591;52.742;13.650;2023-12-20T07:39:51;4.03;;;2.03;;
18917;SDS011;9591;52.742;13.650;2023-12-20T07:42:38;5.37;;;1.93;;
18917;SDS011;9591;52.742;13.650;2023-12-20T07:45:25;11.70;;;1.90;;
18917;SDS011;9591;52.742;13.650;2023-12-20T07:48:11;3.43;;;2.40;;
18917;SDS011;9591;52.742;13.650;2023-12-20T07:50:58;9.00;;;2.13;;
18917;SDS011;9591;52.742;13.650;2023-12-20T07:53:45;4.40;;;2.30;;
18917;SDS011;9591;52.742;13.650;2023-12-20T07:56:34;5.80;;;2.10;;
18917;SDS011;9591;52.742;13.650;2023-12-20T07:59:20;5.03;;;2.53;;
18917;SDS011;9591;52.742;13.650;2023-12-20T08:02:16;8.30;;;2.67;;
18917;SDS011;9591;52.742;13.650;2023-12-20T08:05:03;12.00;;;2.50;;
18917;SDS011;9591;52.742;13.650;2023-12-20T08:07:50;9.63;;;2.87;;
18917;SDS011;9591;52.742;13.650;2023-12-20T08:10:37;4.30;;;2.40;;
18917;SDS011;9591;52.742;13.650;2023-12-20T08:13:25;9.03;;;2.60;;
18917;SDS011;9591;52.742;13.650;2023-12-20T08:16:12;6.63;;;2.50;;
18917;SDS011;9591;52.742;13.650;2023-12-20T08:19:01;5.07;;;2.40;;
18917;SDS011;9591;52.742;13.650;2023-12-20T08:21:48;12.93;;;2.57;;
18917;SDS011;9591;52.742;13.650;2023-12-20T08:24:35;11.37;;;3.10;;
18917;SDS011;9591;52.742;13.650;2023-12-20T08:27:21;7.07;;;2.33;;
18917;SDS011;9591;52.742;13.650;2023-12-20T08:30:10;10.00;;;2.63;;
18917;SDS011;9591;52.742;13.650;2023-12-20T08:32:59;3.93;;;2.03;;
18917;SDS011;9591;52.742;13.650;2023-12-20T08:35:46;4.60;;;2.90;;
18917;SDS011;9591;52.742;13.650;2023-12-20T08:38:33;11.27;;;2.53;;
18917;SDS011;9591;52.742;13.650;2023-12-20T08:41:20;7.77;;;3.20;;
18917;SDS011;9591;52.742;13.650;2023-12-20T08:44:07;10.33;;;2.40;;
18917;SDS011;9591;52.742;13.650;2023-12-20T08:46:55;16.93;;;2.20;;
18917;SDS011;9591;52.742;13.650;2023-12-20T08:49:42;4.47;;;2.10;;
18917;SDS011;9591;52.742;13.650;2023-12-20T08:52:29;4.83;;;2.83;;
18917;SDS011;9591;52.742;13.650;2023-12-20T08:55:16;8.23;;;2.43;;
18917;SDS011;9591;52.742;13.650;2023-12-20T08:58:05;11.00;;;2.10;;
18917;SDS011;9591;52.742;13.650;2023-12-20T09:00:53;7.53;;;2.33;;
18917;SDS011;9591;52.742;13.650;2023-12-20T09:03:42;6.50;;;2.20;;
18917;SDS011;9591;52.742;13.650;2023-12-20T09:06:29;10.37;;;2.10;;
18917;SDS011;9591;52.742;13.650;2023-12-20T09:09:16;5.20;;;2.63;;
18917;SDS011;9591;52.742;13.650;2023-12-20T09:12:04;6.87;;;2.33;;
18917;SDS011;9591;52.742;13.650;2023-12-20T09:14:51;7.73;;;2.00;;
18917;SDS011;9591;52.742;13.650;2023-12-20T09:17:39;7.40;;;2.53;;
18917;SDS011;9591;52.742;13.650;2023-12-20T09:20:28;4.40;;;1.70;;
18917;SDS011;9591;52.742;13.650;2023-12-20T09:23:15;5.13;;;2.00;;
18917;SDS011;9591;52.742;13.650;2023-12-20T09:26:03;2.80;;;1.23;;
18917;SDS011;9591;52.742;13.650;2023-12-20T09:28:50;5.23;;;2.53;;
18917;SDS011;9591;52.742;13.650;2023-12-20T09:31:37;6.90;;;2.63;;
18917;SDS011;9591;52.742;13.650;2023-12-20T09:34:24;13.13;;;2.40;;
18917;SDS011;9591;52.742;13.650;2023-12-20T09:37:14;9.60;;;2.50;;
18917;SDS011;9591;52.742;13.650;2023-12-20T09:40:00;11.93;;;2.37;;
18917;SDS011;9591;52.742;13.650;2023-12-20T09:42:48;4.93;;;2.40;;
18917;SDS011;9591;52.742;13.650;2023-12-20T09:45:42;6.80;;;2.00;;
18917;SDS011;9591;52.742;13.650;2023-12-20T09:48:32;4.40;;;2.03;;
18917;SDS011;9591;52.742;13.650;2023-12-20T09:51:19;7.73;;;2.10;;
18917;SDS011;9591;52.742;13.650;2023-12-20T09:54:08;11.47;;;2.47;;
18917;SDS011;9591;52.742;13.650;2023-12-20T09:56:56;3.77;;;2.00;;
18917;SDS011;9591;52.742;13.650;2023-12-20T09:59:43;8.13;;;1.90;;
18917;SDS011;9591;52.742;13.650;2023-12-20T10:02:30;13.10;;;2.97;;
18917;SDS011;9591;52.742;13.650;2023-12-20T10:05:17;3.53;;;2.60;;
18917;SDS011;9591;52.742;13.650;2023-12-20T10:08:05;8.77;;;2.53;;
18917;SDS011;9591;52.742;13.650;2023-12-20T10:10:54;10.83;;;2.30;;
18917;SDS011;9591;52.742;13.650;2023-12-20T10:13:43;6.13;;;2.10;;
18917;SDS011;9591;52.742;13.650;2023-12-20T10:16:30;3.93;;;2.67;;
18917;SDS011;9591;52.742;13.650;2023-12-20T10:19:17;5.97;;;2.47;;
18917;SDS011;9591;52.742;13.650;2023-12-20T10:22:05;8.93;;;1.90;;
18917;SDS011;9591;52.742;13.650;2023-12-20T10:24:52;8.13;;;2.20;;
18917;SDS011;9591;52.742;13.650;2023-12-20T10:27:41;11.37;;;3.07;;
18917;SDS011;9591;52.742;13.650;2023-12-20T10:30:27;5.00;;;3.10;;
18917;SDS011;9591;52.742;13.650;2023-12-20T10:33:16;8.47;;;2.47;;
18917;SDS011;9591;52.742;13.650;2023-12-20T10:36:11;9.80;;;1.97;;
18917;SDS011;9591;52.742;13.650;2023-12-20T10:38:59;11.43;;;1.43;;
18917;SDS011;9591;52.742;13.650;2023-12-20T10:41:47;10.47;;;2.63;;
18917;SDS011;9591;52.742;13.650;2023-12-20T10:44:35;6.23;;;2.60;;
18917;SDS011;9591;52.742;13.650;2023-12-20T10:47:22;9.53;;;3.00;;
18917;SDS011;9591;52.742;13.650;2023-12-20T10:50:09;7.73;;;2.67;;
18917;SDS011;9591;52.742;13.650;2023-12-20T10:52:56;7.50;;;1.93;;
18917;SDS011;9591;52.742;13.650;2023-12-20T10:55:44;9.37;;;3.23;;
18917;SDS011;9591;52.742;13.650;2023-12-20T10:58:32;7.00;;;2.40;;
18917;SDS011;9591;52.742;13.650;2023-12-20T11:01:22;14.87;;;2.40;;
18917;SDS011;9591;52.742;13.650;2023-12-20T11:04:10;6.10;;;1.93;;
18917;SDS011;9591;52.742;13.650;2023-12-20T11:07:05;6.17;;;2.00;;
18917;SDS011;9591;52.742;13.650;2023-12-20T11:10:03;9.60;;;2.40;;
18917;SDS011;9591;52.742;13.650;2023-12-20T11:13:04;9.13;;;2.83;;
18917;SDS011;9591;52.742;13.650;2023-12-20T11:15:57;8.43;;;2.30;;
18917;SDS011;9591;52.742;13.650;2023-12-20T11:18:46;9.47;;;2.40;;
18917;SDS011;9591;52.742;13.650;2023-12-20T11:21:33;7.37;;;2.10;;
18917;SDS011;9591;52.742;13.650;2023-12-20T11:24:21;6.00;;;2.37;;
18917;SDS011;9591;52.742;13.650;2023-12-20T11:27:07;9.57;;;2.37;;
18917;SDS011;9591;52.742;13.650;2023-12-20T11:29:55;6.23;;;1.90;;
18917;SDS011;9591;52.742;13.650;2023-12-20T11:32:43;2.33;;;1.80;;
18917;SDS011;9591;52.742;13.650;2023-12-20T11:35:34;11.40;;;2.20;;
18917;SDS011;9591;52.742;13.650;2023-12-20T11:38:22;5.33;;;2.10;;
18917;SDS011;9591;52.742;13.650;2023-12-20T11:41:09;4.40;;;2.30;;
18917;SDS011;9591;52.742;13.650;2023-12-20T11:43:57;10.17;;;1.53;;
18917;SDS011;9591;52.742;13.650;2023-12-20T11:46:44;7.47;;;1.60;;
18917;SDS011;9591;52.742;13.650;2023-12-20T11:49:31;9.80;;;2.50;;
18917;SDS011;9591;52.742;13.650;2023-12-20T11:52:19;8.73;;;2.27;;
18917;SDS011;9591;52.742;13.650;2023-12-20T11:55:06;5.20;;;1.93;;
18917;SDS011;9591;52.742;13.650;2023-12-20T11:57:53;11.33;;;2.90;;
18917;SDS011;9591;52.742;13.650;2023-12-20T12:00:40;7.43;;;2.60;;
18917;SDS011;9591;52.742;13.650;2023-12-20T12:03:28;2.53;;;1.87;;
18917;SDS011;9591;52.742;13.650;2023-12-20T12:06:16;6.87;;;2.20;;
18917;SDS011;9591;52.742;13.650;2023-12-20T12:09:05;10.07;;;2.40;;
18917;SDS011;9591;52.742;13.650;2023-12-20T12:11:52;8.87;;;2.40;;
18917;SDS011;9591;52.742;13.650;2023-12-20T12:14:38;2.67;;;2.30;;
18917;SDS011;9591;52.742;13.650;2023-12-20T12:17:25;9.03;;;2.83;;
18917;SDS011;9591;52.742;13.650;2023-12-20T12:20:13;5.10;;;2.50;;
18917;SDS011;9591;52.742;13.650;2023-12-20T12:23:00;6.30;;;3.40;;
18917;SDS011;9591;52.742;13.650;2023-12-20T12:25:49;2.93;;;2.63;;
18917;SDS011;9591;52.742;13.650;2023-12-20T12:28:35;4.23;;;2.40;;
18917;SDS011;9591;52.742;13.650;2023-12-20T12:31:25;4.40;;;2.70;;
18917;SDS011;9591;52.742;13.650;2023-12-20T12:34:13;8.70;;;2.50;;
18917;SDS011;9591;52.742;13.650;2023-12-20T12:37:01;1.77;;;1.67;;
18917;SDS011;9591;52.742;13.650;2023-12-20T12:39:50;6.90;;;3.07;;
18917;SDS011;9591;52.742;13.650;2023-12-20T12:42:41;6.03;;;2.10;;
18917;SDS011;9591;52.742;13.650;2023-12-20T12:45:29;10.17;;;3.30;;
18917;SDS011;9591;52.742;13.650;2023-12-20T12:48:16;4.03;;;2.37;;
18917;SDS011;9591;52.742;13.650;2023-12-20T12:51:04;5.93;;;2.67;;
18917;SDS011;9591;52.742;13.650;2023-12-20T12:53:52;8.20;;;2.00;;
18917;SDS011;9591;52.742;13.650;2023-12-20T12:56:42;9.43;;;2.40;;
18917;SDS011;9591;52.742;13.650;2023-12-20T12:59:30;10.00;;;2.50;;
18917;SDS011;9591;52.742;13.650;2023-12-20T13:02:16;9.23;;;2.83;;
18917;SDS011;9591;52.742;13.650;2023-12-20T13:05:04;2.87;;;1.90;;
18917;SDS011;9591;52.742;13.650;2023-12-20T13:07:52;1.73;;;1.63;;
18917;SDS011;9591;52.742;13.650;2023-12-20T13:10:40;3.97;;;1.40;;
18917;SDS011;9591;52.742;13.650;2023-12-20T13:13:28;1.10;;;1.10;;
18917;SDS011;9591;52.742;13.650;2023-12-20T13:16:17;1.43;;;1.43;;
18917;SDS011;9591;52.742;13.650;2023-12-20T13:19:05;1.10;;;1.10;;
18917;SDS011;9591;52.742;13.650;2023-12-20T13:21:52;1.50;;;1.50;;
18917;SDS011;9591;52.742;13.650;2023-12-20T13:24:40;4.53;;;1.83;;
18917;SDS011;9591;52.742;13.650;2023-12-20T13:27:30;1.37;;;1.30;;
18917;SDS011;9591;52.742;13.650;2023-12-20T13:30:17;1.00;;;1.00;;
18917;SDS011;9591;52.742;13.650;2023-12-20T13:33:05;2.20;;;1.30;;
18917;SDS011;9591;52.742;13.650;2023-12-20T13:35:52;5.07;;;1.37;;
18917;SDS011;9591;52.742;13.650;2023-12-20T13:38:39;1.50;;;1.40;;
18917;SDS011;9591;52.742;13.650;2023-12-20T13:41:26;1.70;;;1.60;;
18917;SDS011;9591;52.742;13.650;2023-12-20T13:44:13;3.83;;;1.30;;
18917;SDS011;9591;52.742;13.650;2023-12-20T13:47:00;2.53;;;1.50;;
18917;SDS011;9591;52.742;13.650;2023-12-20T13:49:50;1.77;;;1.40;;
18917;SDS011;9591;52.742;13.650;2023-12-20T13:52:36;5.87;;;2.20;;
18917;SDS011;9591;52.742;13.650;2023-12-20T13:55:24;1.63;;;1.53;;
18917;SDS011;9591;52.742;13.650;2023-12-20T13:58:12;2.33;;;1.80;;
18917;SDS011;9591;52.742;13.650;2023-12-20T14:00:59;3.00;;;2.00;;
18917;SDS011;9591;52.742;13.650;2023-12-20T14:03:46;2.30;;;1.83;;
18917;SDS011;9591;52.742;13.650;2023-12-20T14:06:34;1.90;;;1.30;;
18917;SDS011;9591;52.742;13.650;2023-12-20T14:09:21;3.27;;;1.40;;
18917;SDS011;9591;52.742;13.650;2023-12-20T14:12:08;2.20;;;1.53;;
18917;SDS011;9591;52.742;13.650;2023-12-20T14:14:55;1.57;;;1.20;;
18917;SDS011;9591;52.742;13.650;2023-12-20T14:17:42;3.67;;;1.40;;
18917;SDS011;9591;52.742;13.650;2023-12-20T14:20:29;2.00;;;1.47;;
18917;SDS011;9591;52.742;13.650;2023-12-20T14:23:17;3.43;;;1.30;;
18917;SDS011;9591;52.742;13.650;2023-12-20T14:26:04;2.43;;;1.27;;
18917;SDS011;9591;52.742;13.650;2023-12-20T14:28:51;5.17;;;1.43;;
18917;SDS011;9591;52.742;13.650;2023-12-20T14:31:38;6.83;;;1.53;;
18917;SDS011;9591;52.742;13.650;2023-12-20T14:34:26;5.37;;;1.70;;
18917;SDS011;9591;52.742;13.650;2023-12-20T14:37:13;3.27;;;1.00;;
18917;SDS011;9591;52.742;13.650;2023-12-20T14:40:02;3.50;;;1.67;;
18917;SDS011;9591;52.742;13.650;2023-12-20T14:42:50;2.73;;;1.10;;
18917;SDS011;9591;52.742;13.650;2023-12-20T14:45:37;1.87;;;1.03;;
18917;SDS011;9591;52.742;13.650;2023-12-20T14:48:23;0.93;;;0.93;;
18917;SDS011;9591;52.742;13.650;2023-12-20T14:51:12;15.60;;;1.53;;
18917;SDS011;9591;52.742;13.650;2023-12-20T14:54:02;3.43;;;1.27;;
18917;SDS011;9591;52.742;13.650;2023-12-20T14:56:51;1.13;;;1.03;;
18917;SDS011;9591;52.742;13.650;2023-12-20T14:59:38;3.13;;;1.00;;
18917;SDS011;9591;52.742;13.650;2023-12-20T15:02:24;2.43;;;1.10;;
18917;SDS011;9591;52.742;13.650;2023-12-20T15:05:12;3.13;;;1.10;;
18917;SDS011;9591;52.742;13.650;2023-12-20T15:08:01;2.57;;;1.20;;
18917;SDS011;9591;52.742;13.650;2023-12-20T15:10:48;1.80;;;1.63;;
18917;SDS011;9591;52.742;13.650;2023-12-20T15:13:37;1.70;;;1.17;;
18917;SDS011;9591;52.742;13.650;2023-12-20T15:16:23;6.03;;;1.53;;
18917;SDS011;9591;52.742;13.650;2023-12-20T15:19:11;1.20;;;1.20;;
18917;SDS011;9591;52.742;13.650;2023-12-20T15:21:58;1.13;;;1.13;;
18917;SDS011;9591;52.742;13.650;2023-12-20T15:24:45;3.37;;;1.17;;
18917;SDS011;9591;52.742;13.650;2023-12-20T15:27:32;1.43;;;1.30;;
18917;SDS011;9591;52.742;13.650;2023-12-20T15:30:22;3.73;;;1.70;;
18917;SDS011;9591;52.742;13.650;2023-12-20T15:33:09;3.37;;;1.40;;
18917;SDS011;9591;52.742;13.650;2023-12-20T15:35:56;1.30;;;1.20;;
18917;SDS011;9591;52.742;13.650;2023-12-20T15:38:43;2.03;;;1.33;;
18917;SDS011;9591;52.742;13.650;2023-12-20T15:41:30;1.83;;;1.20;;
18917;SDS011;9591;52.742;13.650;2023-12-20T15:44:17;4.13;;;1.43;;
18917;SDS011;9591;52.742;13.650;2023-12-20T15:47:05;2.67;;;1.27;;
18917;SDS011;9591;52.742;13.650;2023-12-20T15:49:52;2.10;;;1.10;;
18917;SDS011;9591;52.742;13.650;2023-12-20T15:52:39;2.37;;;1.57;;
18917;SDS011;9591;52.742;13.650;2023-12-20T15:55:27;5.00;;;1.60;;
18917;SDS011;9591;52.742;13.650;2023-12-20T15:58:14;6.57;;;1.63;;
18917;SDS011;9591;52.742;13.650;2023-12-20T16:01:01;1.50;;;1.40;;
18917;SDS011;9591;52.742;13.650;2023-12-20T16:03:50;3.97;;;1.40;;
18917;SDS011;9591;52.742;13.650;2023-12-20T16:06:43;1.50;;;1.40;;
18917;SDS011;9591;52.742;13.650;2023-12-20T16:09:30;8.03;;;1.60;;
18917;SDS011;9591;52.742;13.650;2023-12-20T16:12:17;1.53;;;1.23;;
18917;SDS011;9591;52.742;13.650;2023-12-20T16:15:04;2.77;;;1.70;;
18917;SDS011;9591;52.742;13.650;2023-12-20T16:17:53;4.47;;;1.60;;
18917;SDS011;9591;52.742;13.650;2023-12-20T16:20:41;4.03;;;1.50;;
18917;SDS011;9591;52.742;13.650;2023-12-20T16:23:28;1.53;;;1.43;;
18917;SDS011;9591;52.742;13.650;2023-12-20T16:26:15;3.20;;;1.33;;
18917;SDS011;9591;52.742;13.650;2023-12-20T16:29:02;6.23;;;1.97;;
18917;SDS011;9591;52.742;13.650;2023-12-20T16:31:49;1.77;;;1.40;;
18917;SDS011;9591;52.742;13.650;2023-12-20T16:34:36;5.83;;;1.40;;
18917;SDS011;9591;52.742;13.650;2023-12-20T16:37:24;1.60;;;1.50;;
18917;SDS011;9591;52.742;13.650;2023-12-20T16:40:11;1.23;;;1.20;;
18917;SDS011;9591;52.742;13.650;2023-12-20T16:42:58;4.47;;;2.70;;
18917;SDS011;9591;52.742;13.650;2023-12-20T16:45:45;3.90;;;1.20;;
18917;SDS011;9591;52.742;13.650;2023-12-20T16:48:32;2.67;;;2.47;;